createdAt,value
2023-04-18T00:01:16.042Z,10.82
2023-04-18T00:03:42.624Z,10.50
2023-04-18T00:06:10.249Z,11.10
2023-04-18T00:08:36.467Z,10.52
2023-04-18T00:11:02.695Z,11.27
2023-04-18T00:13:28.962Z,11.23
2023-04-18T00:15:55.294Z,11.45
2023-04-18T00:18:21.939Z,11.23
2023-04-18T00:20:48.203Z,10.35
2023-04-18T00:23:14.627Z,10.32
2023-04-18T00:25:40.855Z,10.75
2023-04-18T00:28:07.094Z,11.25
2023-04-18T00:30:33.511Z,10.07
2023-04-18T00:32:59.896Z,11.07
2023-04-18T00:35:26.178Z,10.57
2023-04-18T00:37:52.428Z,10.60
2023-04-18T00:40:18.691Z,10.60
2023-04-18T00:42:44.897Z,10.77
2023-04-18T00:45:11.254Z,10.20
2023-04-18T00:47:37.478Z,10.07
2023-04-18T00:50:04.013Z,10.10
2023-04-18T00:52:30.414Z,10.13
2023-04-18T00:54:56.666Z,10.32
2023-04-18T00:57:22.876Z,11.20
2023-04-18T00:59:49.454Z,10.05
2023-04-18T01:02:15.741Z,9.27
2023-04-18T01:04:42.819Z,9.60
2023-04-18T01:07:09.624Z,9.82
2023-04-18T01:09:36.097Z,9.27
2023-04-18T01:12:02.458Z,10.10
2023-04-18T01:14:28.715Z,10.98
2023-04-18T01:16:54.903Z,9.98
2023-04-18T01:19:21.396Z,12.32
2023-04-18T01:21:47.876Z,11.00
2023-04-18T01:24:15.017Z,11.32
2023-04-18T01:26:43.558Z,10.60
2023-04-18T01:29:10.132Z,11.18
2023-04-18T01:31:36.830Z,11.32
2023-04-18T01:34:03.489Z,11.73
2023-04-18T01:36:29.883Z,11.30
2023-04-18T01:38:56.334Z,11.25
2023-04-18T01:41:22.938Z,10.68
2023-04-18T01:43:49.333Z,11.02
2023-04-18T01:46:16.660Z,10.25
2023-04-18T01:48:42.945Z,10.77
2023-04-18T01:51:09.147Z,11.38
2023-04-18T01:53:35.361Z,11.15
2023-04-18T01:56:01.648Z,11.32
2023-04-18T01:58:27.857Z,11.32
2023-04-18T02:00:54.602Z,11.15
2023-04-18T02:03:21.064Z,11.25
2023-04-18T02:05:47.336Z,11.35
2023-04-18T02:08:13.948Z,10.57
2023-04-18T02:10:40.440Z,11.15
2023-04-18T02:13:06.744Z,10.35
2023-04-18T02:15:33.608Z,10.38
2023-04-18T02:18:00.366Z,10.63
2023-04-18T02:20:27.287Z,10.50
2023-04-18T02:22:53.474Z,11.18
2023-04-18T02:25:23.396Z,11.57
2023-04-18T02:27:49.734Z,10.80
2023-04-18T02:30:15.993Z,10.95
2023-04-18T02:32:42.230Z,10.85
2023-04-18T02:35:08.537Z,9.98
2023-04-18T02:37:34.774Z,11.13
2023-04-18T02:40:01.016Z,11.18
2023-04-18T02:42:27.209Z,10.75
2023-04-18T02:44:53.613Z,11.10
2023-04-18T02:47:19.863Z,11.00
2023-04-18T02:49:46.064Z,11.48
2023-04-18T02:52:12.307Z,10.60
2023-04-18T02:54:38.526Z,11.07
2023-04-18T02:57:04.754Z,11.45
2023-04-18T02:59:30.999Z,11.07
2023-04-18T03:01:57.228Z,11.13
2023-04-18T03:04:23.478Z,9.75
2023-04-18T03:06:50.025Z,10.55
2023-04-18T03:09:16.741Z,10.65
2023-04-18T03:11:43.081Z,11.38
2023-04-18T03:14:09.290Z,11.20
2023-04-18T03:16:35.568Z,12.05
2023-04-18T03:19:02.006Z,12.43
2023-04-18T03:21:28.196Z,12.30
2023-04-18T03:23:54.456Z,11.35
2023-04-18T03:26:20.658Z,11.63
2023-04-18T03:28:47.012Z,11.82
2023-04-18T03:31:13.259Z,11.70
2023-04-18T03:33:39.587Z,11.75
2023-04-18T03:36:06.092Z,11.90
2023-04-18T03:38:32.315Z,11.60
2023-04-18T03:40:58.506Z,11.52
2023-04-18T03:43:24.689Z,11.90
2023-04-18T03:45:51.019Z,12.65
2023-04-18T03:48:17.291Z,12.23
2023-04-18T03:50:43.525Z,13.02
2023-04-18T03:53:09.748Z,12.57
2023-04-18T03:55:35.964Z,12.40
2023-04-18T03:58:02.172Z,12.20
2023-04-18T04:00:28.373Z,11.98
2023-04-18T04:02:54.745Z,13.02
2023-04-18T04:05:21.057Z,12.40
2023-04-18T04:07:47.377Z,13.27
2023-04-18T04:10:13.645Z,12.82
2023-04-18T04:12:39.844Z,12.30
2023-04-18T04:15:06.377Z,12.07
2023-04-18T04:17:32.785Z,12.18
2023-04-18T04:19:59.101Z,13.10
2023-04-18T04:22:25.617Z,12.95
2023-04-18T04:24:51.895Z,12.50
2023-04-18T04:27:18.781Z,12.50
2023-04-18T04:29:45.217Z,13.45
2023-04-18T04:32:12.729Z,12.55
2023-04-18T04:34:41.233Z,12.80
2023-04-18T04:37:08.118Z,11.63
2023-04-18T04:39:34.365Z,11.98
2023-04-18T04:42:04.263Z,12.02
2023-04-18T04:44:31.301Z,12.45
2023-04-18T04:46:57.532Z,12.10
2023-04-18T04:49:23.725Z,13.35
2023-04-18T04:51:49.967Z,13.93
2023-04-18T04:54:16.464Z,13.93
2023-04-18T04:56:42.896Z,14.52
2023-04-18T04:59:09.125Z,14.40
2023-04-18T05:01:35.451Z,14.43
2023-04-18T05:04:01.793Z,13.48
2023-04-18T05:06:28.182Z,13.20
2023-04-18T05:08:56.619Z,15.75
2023-04-18T05:11:23.121Z,14.93
2023-04-18T05:13:49.375Z,13.77
2023-04-18T05:16:15.698Z,14.20
2023-04-18T05:18:42.012Z,13.25
2023-04-18T05:21:08.207Z,13.77
2023-04-18T05:23:37.440Z,12.77
2023-04-18T05:26:04.102Z,13.38
2023-04-18T05:28:30.477Z,12.02
2023-04-18T05:31:01.244Z,13.18
2023-04-18T05:33:28.381Z,13.35
2023-04-18T05:35:54.955Z,12.60
2023-04-18T05:38:21.152Z,13.00
2023-04-18T05:40:47.339Z,12.90
2023-04-18T05:43:13.555Z,12.55
2023-04-18T05:45:39.753Z,13.30
2023-04-18T05:48:06.053Z,12.60
2023-04-18T05:50:32.288Z,11.82
2023-04-18T05:52:59.308Z,12.23
2023-04-18T05:55:25.888Z,12.75
2023-04-18T05:57:52.308Z,12.75
2023-04-18T06:00:18.985Z,12.23
2023-04-18T06:02:45.285Z,12.63
2023-04-18T06:05:12.320Z,13.50
2023-04-18T06:07:38.798Z,12.38
2023-04-18T06:10:09.002Z,11.52
2023-04-18T06:12:35.362Z,12.02
2023-04-18T06:15:01.833Z,12.07
2023-04-18T06:17:28.117Z,11.85
2023-04-18T06:19:54.341Z,11.95
2023-04-18T06:22:20.630Z,13.23
2023-04-18T06:24:46.836Z,12.27
2023-04-18T06:27:27.817Z,11.70
2023-04-18T06:29:56.632Z,11.68
2023-04-18T06:32:22.879Z,11.32
2023-04-18T06:34:49.172Z,11.63
2023-04-18T06:37:15.480Z,11.38
2023-04-18T06:39:41.795Z,11.95
2023-04-18T06:42:07.976Z,11.20
2023-04-18T06:44:35.802Z,11.75
2023-04-18T06:47:02.606Z,11.70
2023-04-18T06:49:28.812Z,11.13
2023-04-18T06:51:55.117Z,10.85
2023-04-18T06:54:21.351Z,10.60
2023-04-18T06:56:47.553Z,9.70
2023-04-18T06:59:14.154Z,9.60
2023-04-18T07:01:43.501Z,10.23
2023-04-18T07:04:10.002Z,9.65
2023-04-18T07:06:36.479Z,10.00
2023-04-18T07:09:02.868Z,9.50
2023-04-18T07:11:29.174Z,8.45
2023-04-18T07:13:55.485Z,9.57
2023-04-18T07:16:21.731Z,9.07
2023-04-18T07:18:47.956Z,7.82
2023-04-18T07:21:14.194Z,8.00
2023-04-18T07:23:40.541Z,7.50
2023-04-18T07:26:06.849Z,8.02
2023-04-18T07:28:33.081Z,7.88
2023-04-18T07:30:59.692Z,7.88
2023-04-18T07:33:25.955Z,7.85
2023-04-18T07:35:53.018Z,7.22
2023-04-18T07:38:19.329Z,7.38
2023-04-18T07:40:45.734Z,7.13
2023-04-18T07:43:11.926Z,6.75
2023-04-18T07:45:38.393Z,6.97
2023-04-18T07:48:05.285Z,7.38
2023-04-18T07:50:31.526Z,6.57
2023-04-18T07:52:57.754Z,6.75
2023-04-18T07:55:23.944Z,6.18
2023-04-18T07:57:50.501Z,6.60
2023-04-18T08:00:17.317Z,7.05
2023-04-18T08:02:43.690Z,6.63
2023-04-18T08:05:10.407Z,6.07
2023-04-18T08:07:36.944Z,6.25
2023-04-18T08:10:03.476Z,6.57
2023-04-18T08:12:29.693Z,5.78
2023-04-18T08:14:55.949Z,6.18
2023-04-18T08:17:22.720Z,5.97
2023-04-18T08:19:48.955Z,6.38
2023-04-18T08:22:15.220Z,6.07
2023-04-18T08:24:46.453Z,6.72
2023-04-18T08:27:17.569Z,6.82
2023-04-18T08:29:43.808Z,7.18
2023-04-18T08:32:10.206Z,6.55
2023-04-18T08:34:36.801Z,6.00
2023-04-18T08:37:03.006Z,6.60
2023-04-18T08:39:29.302Z,5.85
2023-04-18T08:41:59.367Z,6.60
2023-04-18T08:44:27.743Z,6.35
2023-04-18T08:46:54.525Z,6.68
2023-04-18T08:49:24.029Z,6.47
2023-04-18T08:51:53.937Z,6.45
2023-04-18T08:54:20.748Z,6.45
2023-04-18T08:56:47.719Z,6.53
2023-04-18T08:59:14.697Z,6.75
2023-04-18T09:01:51.806Z,6.50
2023-04-18T09:04:36.670Z,6.93
2023-04-18T09:07:07.060Z,7.30
2023-04-18T09:09:59.721Z,6.35
2023-04-18T09:12:27.066Z,7.40
2023-04-18T09:14:57.693Z,6.28
2023-04-18T09:17:33.006Z,7.03
2023-04-18T09:19:59.823Z,7.25
2023-04-18T09:22:26.386Z,7.60
2023-04-18T09:24:55.572Z,7.07
2023-04-18T09:27:24.824Z,7.20
2023-04-18T09:29:52.346Z,7.13
2023-04-18T09:32:24.930Z,7.22
2023-04-18T09:34:54.365Z,6.93
2023-04-18T09:37:21.413Z,6.68
2023-04-18T09:39:47.622Z,6.72
2023-04-18T09:42:13.985Z,6.35
2023-04-18T09:44:59.340Z,6.60
2023-04-18T09:47:26.480Z,6.78
2023-04-18T09:49:52.716Z,6.40
2023-04-18T09:52:19.813Z,7.25
2023-04-18T09:54:48.213Z,6.75
2023-04-18T09:57:14.601Z,7.63
2023-04-18T09:59:47.629Z,7.15
2023-04-18T10:02:19.544Z,6.80
2023-04-18T10:04:46.686Z,6.55
2023-04-18T10:07:13.425Z,5.70
2023-04-18T10:09:42.591Z,6.32
2023-04-18T10:12:08.882Z,6.00
2023-04-18T10:14:37.199Z,5.97
2023-04-18T10:17:03.440Z,5.75
2023-04-18T10:19:30.204Z,5.10
2023-04-18T10:21:57.999Z,5.50
2023-04-18T10:24:42.845Z,6.28
2023-04-18T10:27:09.039Z,5.43
2023-04-18T10:29:49.192Z,5.75
2023-04-18T10:32:16.154Z,5.55
2023-04-18T10:34:42.417Z,5.60
2023-04-18T10:37:08.803Z,5.45
2023-04-18T10:39:53.529Z,5.50
2023-04-18T10:42:39.715Z,5.50
2023-04-18T10:45:22.347Z,5.50
2023-04-18T10:47:48.917Z,5.93
2023-04-18T10:50:15.305Z,5.70
2023-04-18T10:52:41.714Z,5.50
2023-04-18T10:55:07.967Z,4.82
2023-04-18T10:57:40.979Z,5.53
2023-04-18T11:00:11.127Z,5.28
2023-04-18T11:02:39.060Z,5.35
2023-04-18T11:05:06.510Z,5.63
2023-04-18T11:07:36.380Z,5.57
2023-04-18T11:10:03.281Z,5.68
2023-04-18T11:12:34.852Z,5.90
2023-04-18T11:15:03.521Z,5.60
2023-04-18T11:17:32.718Z,5.80
2023-04-18T11:20:00.232Z,5.50
2023-04-18T11:22:26.769Z,5.47
2023-04-18T11:24:57.559Z,5.68
2023-04-18T11:27:24.666Z,5.97
2023-04-18T11:29:54.338Z,6.00
2023-04-18T11:32:21.781Z,6.00
2023-04-18T11:34:50.642Z,5.70
2023-04-18T11:37:16.855Z,6.28
2023-04-18T11:39:43.470Z,6.05
2023-04-18T11:42:10.057Z,5.50
2023-04-18T11:44:39.502Z,6.15
2023-04-18T11:47:21.645Z,6.00
2023-04-18T11:49:47.857Z,6.05
2023-04-18T11:52:14.115Z,5.90
2023-04-18T11:54:43.838Z,5.70
2023-04-18T11:57:20.988Z,6.20
2023-04-18T11:59:48.073Z,6.05
2023-04-18T12:02:16.677Z,5.60
2023-04-18T12:04:57.144Z,5.68
2023-04-18T12:07:37.317Z,5.80
2023-04-18T12:10:04.711Z,6.82
2023-04-18T12:12:30.950Z,6.32
2023-04-18T12:14:57.988Z,6.45
2023-04-18T12:17:26.001Z,6.40
2023-04-18T12:19:53.476Z,6.45
2023-04-18T12:22:19.722Z,6.10
2023-04-18T12:24:46.160Z,6.65
2023-04-18T12:27:12.343Z,6.18
2023-04-18T12:29:39.534Z,6.53
2023-04-18T12:32:06.011Z,6.10
2023-04-18T12:34:32.194Z,6.40
2023-04-18T12:36:58.449Z,6.32
2023-04-18T12:39:25.867Z,6.38
2023-04-18T12:41:52.072Z,6.63
2023-04-18T12:44:18.369Z,5.82
2023-04-18T12:46:44.759Z,5.75
2023-04-18T12:49:11.000Z,6.03
2023-04-18T12:51:37.221Z,6.30
2023-04-18T12:54:03.503Z,6.68
2023-04-18T12:56:29.715Z,5.63
2023-04-18T12:58:55.948Z,5.20
2023-04-18T13:01:22.207Z,5.53
2023-04-18T13:03:53.696Z,5.75
2023-04-18T13:06:24.340Z,5.50
2023-04-18T13:08:50.529Z,5.60
2023-04-18T13:11:16.731Z,5.47
2023-04-18T13:13:43.199Z,5.45
2023-04-18T13:16:09.449Z,6.25
2023-04-18T13:18:36.261Z,6.15
2023-04-18T13:21:02.459Z,5.47
2023-04-18T13:23:28.638Z,5.97
2023-04-18T13:25:54.829Z,5.80
2023-04-18T13:28:21.042Z,6.70
2023-04-18T13:30:47.236Z,6.07
2023-04-18T13:33:13.531Z,5.32
2023-04-18T13:35:41.507Z,5.72
2023-04-18T13:38:07.793Z,5.15
2023-04-18T13:40:34.066Z,5.57
2023-04-18T13:43:00.286Z,5.35
2023-04-18T13:45:26.511Z,5.70
2023-04-18T13:47:52.778Z,5.72
2023-04-18T13:50:19.089Z,5.15
2023-04-18T13:52:46.110Z,5.55
2023-04-18T13:55:12.372Z,5.63
2023-04-18T13:57:38.957Z,5.50
2023-04-18T14:00:06.501Z,5.43
2023-04-18T14:02:32.863Z,6.05
2023-04-18T14:04:59.299Z,6.13
2023-04-18T14:07:25.575Z,5.65
2023-04-18T14:09:53.757Z,7.10
2023-04-18T14:12:20.217Z,6.53
2023-04-18T14:14:46.463Z,6.13
2023-04-18T14:17:12.747Z,6.13
2023-04-18T14:19:38.992Z,6.45
2023-04-18T14:22:05.186Z,5.88
2023-04-18T14:24:31.419Z,6.75
2023-04-18T14:26:58.232Z,6.43
2023-04-18T14:29:24.509Z,6.43
2023-04-18T14:31:50.717Z,6.45
2023-04-18T14:34:16.966Z,12.88
2023-04-18T14:36:43.148Z,7.55
2023-04-18T14:39:09.331Z,7.28
2023-04-18T14:41:35.695Z,7.13
2023-04-18T14:44:03.397Z,6.30
2023-04-18T14:46:30.584Z,7.10
2023-04-18T14:48:56.808Z,7.63
2023-04-18T14:51:23.612Z,7.72
2023-04-18T14:53:49.823Z,7.13
2023-04-18T14:56:16.242Z,6.65
2023-04-18T14:58:42.819Z,6.47
2023-04-18T15:01:09.064Z,6.65
2023-04-18T15:03:35.491Z,6.57
2023-04-18T15:06:01.927Z,6.88
2023-04-18T15:08:28.114Z,7.32
2023-04-18T15:10:54.321Z,6.65
2023-04-18T15:13:20.531Z,6.78
2023-04-18T15:15:50.951Z,6.03
2023-04-18T15:18:17.150Z,6.97
2023-04-18T15:20:43.474Z,6.97
2023-04-18T15:23:13.420Z,6.35
2023-04-18T15:25:40.116Z,7.05
2023-04-18T15:28:06.979Z,6.88
2023-04-18T15:30:33.176Z,6.47
2023-04-18T15:32:59.710Z,7.03
2023-04-18T15:35:26.183Z,6.38
2023-04-18T15:37:53.854Z,6.82
2023-04-18T15:40:20.553Z,6.43
2023-04-18T15:42:49.224Z,6.60
2023-04-18T15:45:15.460Z,6.20
2023-04-18T15:47:41.873Z,6.53
2023-04-18T15:50:08.516Z,6.38
2023-04-18T15:52:34.708Z,6.20
2023-04-18T15:55:01.271Z,6.88
2023-04-18T15:57:29.555Z,6.22
2023-04-18T15:59:56.103Z,6.60
2023-04-18T16:02:22.627Z,7.00
2023-04-18T16:04:48.979Z,6.63
2023-04-18T16:07:16.208Z,6.78
2023-04-18T16:09:42.471Z,6.20
2023-04-18T16:12:08.770Z,6.28
2023-04-18T16:14:35.002Z,6.82
2023-04-18T16:17:01.251Z,6.57
2023-04-18T16:19:27.492Z,6.22
2023-04-18T16:21:53.687Z,6.32
2023-04-18T16:24:19.896Z,6.30
2023-04-18T16:26:46.209Z,6.35
2023-04-18T16:29:12.398Z,6.57
2023-04-18T16:31:38.701Z,5.80
2023-04-18T16:34:05.289Z,5.80
2023-04-18T16:36:32.740Z,6.03
2023-04-18T16:38:58.943Z,5.70
2023-04-18T16:41:25.721Z,5.75
2023-04-18T16:43:52.262Z,5.95
2023-04-18T16:46:19.107Z,5.78
2023-04-18T16:48:45.503Z,6.30
2023-04-18T16:51:12.960Z,5.78
2023-04-18T16:53:39.201Z,6.30
2023-04-18T16:56:05.733Z,6.03
2023-04-18T16:58:32.035Z,6.18
2023-04-18T17:00:58.294Z,6.03
2023-04-18T17:03:24.570Z,6.95
2023-04-18T17:05:50.841Z,6.28
2023-04-18T17:08:17.039Z,5.97
2023-04-18T17:10:43.229Z,5.72
2023-04-18T17:13:09.466Z,6.25
2023-04-18T17:15:36.433Z,5.90
2023-04-18T17:18:02.845Z,5.88
2023-04-18T17:20:29.179Z,5.97
2023-04-18T17:22:55.450Z,6.25
2023-04-18T17:25:21.728Z,5.32
2023-04-18T17:27:47.971Z,6.10
2023-04-18T17:30:14.246Z,5.82
2023-04-18T17:32:45.627Z,5.32
2023-04-18T17:35:12.534Z,5.45
2023-04-18T17:37:38.753Z,5.70
2023-04-18T17:40:09.690Z,5.68
2023-04-18T17:42:36.764Z,5.85
2023-04-18T17:45:03.762Z,6.22
2023-04-18T17:47:30.930Z,5.63
2023-04-18T17:49:57.199Z,6.80
2023-04-18T17:52:23.446Z,5.70
2023-04-18T17:54:49.786Z,5.55
2023-04-18T17:57:16.423Z,5.78
2023-04-18T17:59:42.766Z,6.40
2023-04-18T18:02:11.243Z,7.00
2023-04-18T18:04:38.432Z,6.40
2023-04-18T18:07:04.934Z,6.10
2023-04-18T18:09:31.599Z,6.72
2023-04-18T18:11:58.565Z,9.63
2023-04-18T18:14:25.079Z,6.43
2023-04-18T18:16:51.372Z,6.15
2023-04-18T18:19:17.688Z,5.45
2023-04-18T18:21:43.921Z,5.82
2023-04-18T18:24:10.678Z,6.40
2023-04-18T18:26:36.916Z,6.28
2023-04-18T18:29:09.085Z,6.55
2023-04-18T18:31:35.883Z,6.70
2023-04-18T18:34:02.286Z,5.82
2023-04-18T18:36:28.646Z,6.15
2023-04-18T18:38:55.117Z,6.72
2023-04-18T18:41:22.483Z,6.63
2023-04-18T18:43:49.014Z,6.30
2023-04-18T18:46:15.588Z,6.65
2023-04-18T18:48:41.998Z,6.93
2023-04-18T18:51:08.708Z,6.78
2023-04-18T18:53:34.998Z,6.65
2023-04-18T18:56:01.540Z,7.25
2023-04-18T18:58:27.750Z,7.03
2023-04-18T19:00:56.014Z,7.00
2023-04-18T19:03:22.605Z,7.20
2023-04-18T19:05:48.921Z,6.40
2023-04-18T19:08:15.444Z,6.55
2023-04-18T19:10:41.848Z,6.60
2023-04-18T19:13:08.064Z,6.32
2023-04-18T19:15:34.290Z,6.47
2023-04-18T19:18:01.404Z,6.25
2023-04-18T19:20:29.129Z,6.15
2023-04-18T19:22:55.491Z,6.03
2023-04-18T19:25:21.816Z,5.97
2023-04-18T19:27:48.024Z,5.95
2023-04-18T19:30:14.260Z,5.90
2023-04-18T19:32:40.627Z,6.05
2023-04-18T19:35:07.041Z,5.85
2023-04-18T19:37:33.285Z,6.00
2023-04-18T19:39:59.553Z,5.90
2023-04-18T19:42:25.839Z,5.70
2023-04-18T19:44:52.030Z,6.00
2023-04-18T19:47:18.244Z,5.70
2023-04-18T19:49:44.537Z,6.28
2023-04-18T19:52:10.771Z,5.60
2023-04-18T19:54:36.991Z,6.55
2023-04-18T19:57:04.502Z,5.93
2023-04-18T19:59:30.741Z,5.70
2023-04-18T20:01:59.508Z,6.70
2023-04-18T20:04:27.897Z,6.35
2023-04-18T20:06:55.304Z,6.28
2023-04-18T20:09:21.548Z,6.47
2023-04-18T20:11:48.400Z,6.72
2023-04-18T20:14:14.623Z,6.25
2023-04-18T20:16:42.618Z,6.78
2023-04-18T20:19:12.172Z,5.68
2023-04-18T20:21:38.838Z,6.32
2023-04-18T20:24:06.589Z,5.80
2023-04-18T20:26:32.796Z,5.80
2023-04-18T20:28:59.044Z,5.90
2023-04-18T20:31:25.259Z,6.05
2023-04-18T20:33:51.636Z,6.20
2023-04-18T20:36:18.145Z,6.93
2023-04-18T20:38:44.492Z,6.60
2023-04-18T20:41:14.743Z,5.68
2023-04-18T20:43:42.963Z,6.18
2023-04-18T20:46:12.603Z,5.78
2023-04-18T20:48:39.329Z,5.65
2023-04-18T20:51:05.615Z,5.80
2023-04-18T20:53:31.855Z,6.18
2023-04-18T20:55:58.122Z,6.20
2023-04-18T20:58:24.425Z,7.32
2023-04-18T21:00:50.631Z,7.30
2023-04-18T21:03:17.039Z,7.63
2023-04-18T21:05:44.148Z,7.88
2023-04-18T21:08:13.024Z,7.95
2023-04-18T21:10:39.649Z,8.20
2023-04-18T21:13:05.885Z,7.88
2023-04-18T21:15:32.151Z,8.05
2023-04-18T21:17:58.476Z,7.85
2023-04-18T21:20:24.743Z,7.88
2023-04-18T21:22:50.936Z,8.38
2023-04-18T21:25:18.480Z,8.00
2023-04-18T21:27:44.732Z,8.52
2023-04-18T21:30:11.217Z,8.00
2023-04-18T21:32:37.454Z,7.72
2023-04-18T21:35:03.749Z,8.07
2023-04-18T21:37:30.127Z,8.88
2023-04-18T21:39:56.401Z,7.90
2023-04-18T21:42:22.666Z,7.15
2023-04-18T21:44:48.893Z,7.38
2023-04-18T21:47:15.079Z,7.28
2023-04-18T21:49:41.544Z,6.97
2023-04-18T21:52:08.199Z,7.68
2023-04-18T21:54:34.406Z,7.18
2023-04-18T21:57:00.635Z,6.97
2023-04-18T21:59:26.859Z,6.80
2023-04-18T22:01:53.057Z,6.85
2023-04-18T22:04:21.690Z,7.47
2023-04-18T22:06:47.997Z,7.80
2023-04-18T22:09:14.449Z,7.38
2023-04-18T22:11:40.903Z,7.35
2023-04-18T22:14:07.527Z,6.80
2023-04-18T22:16:33.928Z,6.97
2023-04-18T22:19:01.143Z,6.85
2023-04-18T22:21:27.451Z,8.00
2023-04-18T22:23:53.676Z,7.63
2023-04-18T22:26:19.900Z,7.30
2023-04-18T22:28:46.298Z,7.20
2023-04-18T22:31:12.567Z,7.28
2023-04-18T22:33:38.821Z,6.53
2023-04-18T22:36:05.285Z,7.07
2023-04-18T22:38:31.529Z,6.32
2023-04-18T22:40:58.905Z,7.38
2023-04-18T22:43:26.698Z,6.53
2023-04-18T22:45:52.929Z,6.63
2023-04-18T22:48:20.466Z,6.32
2023-04-18T22:50:47.224Z,6.47
2023-04-18T22:53:14.356Z,6.50
2023-04-18T22:55:41.492Z,6.30
2023-04-18T22:58:07.944Z,6.68
2023-04-18T23:00:34.378Z,7.38
2023-04-18T23:03:00.991Z,7.43
2023-04-18T23:05:27.585Z,7.18
2023-04-18T23:07:53.850Z,7.53
2023-04-18T23:10:20.246Z,6.85
2023-04-18T23:12:46.452Z,7.15
2023-04-18T23:15:13.043Z,7.63
2023-04-18T23:17:39.346Z,6.90
2023-04-18T23:20:10.775Z,6.90
2023-04-18T23:22:37.287Z,7.10
2023-04-18T23:25:03.627Z,7.20
2023-04-18T23:27:29.832Z,6.85
2023-04-18T23:29:56.096Z,6.68
2023-04-18T23:32:22.406Z,6.70
2023-04-18T23:34:48.609Z,6.75
2023-04-18T23:37:14.818Z,6.78
2023-04-18T23:39:41.033Z,6.38
2023-04-18T23:42:07.251Z,6.75
2023-04-18T23:44:33.499Z,6.60
2023-04-18T23:46:59.795Z,6.97
2023-04-18T23:49:28.036Z,5.95
2023-04-18T23:51:54.263Z,5.88
2023-04-18T23:54:20.508Z,6.13
2023-04-18T23:56:46.676Z,6.13
2023-04-18T23:59:12.920Z,6.55
